Terminal Aerodrome Forecast
Issued by NWS

Home | Current Version | Previous Version | Text Only | Print | Product List | Glossary On
Versions: 1 2 3 4 5 6 7 8 9 10 11 12 13 14 15 16 17 18 19 20
000
FTUS45 KLKN 231120
TAFELY
TAF
KELY 231120Z 2312/2412 01007KT P6SM VCFG OVC002
      TEMPO 2312/2316 1/2SM FZFG VV002
     FM231900 36011G20KT P6SM VCTS BKN050CB
     FM240300 35006KT P6SM BKN050=

USA.gov is the U.S. government's official web portal to all federal, state and local government web resources and services.